Time;durP1;ratioP1;P1;durP2;ratioP2;P2;SDS_P1;SDS_P2;PMS_P1;PMS_P2;Temp;Humidity;BMP_temperature;BMP_pressure;BME280_temperature;BME280_humidity;BME280_pressure;Samples;Min_cycle;Max_cycle;Signal;HPM_P1;HPM_P2
2022/09/14 00:01:47;;;;;;;;;;;23.60;54.80;;;19.78;78.02;94848.00;4972908;28;19940;-46
2022/09/14 00:04:17;;;;;;;;;;;23.60;54.90;;;19.74;78.05;94842.50;4981091;28;19910;-47
2022/09/14 00:06:43;;;;;;;;;;;23.60;54.90;;;19.72;78.92;94833.16;4970714;28;19924;-45
2022/09/14 00:09:18;;;;;;;;;;;23.50;54.90;;;19.65;79.94;94828.34;4953468;28;20323;-45
2022/09/14 00:11:48;;;;;;;;;;;23.50;54.90;;;19.60;80.29;94834.72;4971476;28;19913;-45
2022/09/14 00:14:17;;;;;;;;;;;23.50;55.00;;;19.54;80.52;94827.19;4942517;28;20005;-46
2022/09/14 00:16:43;;;;;;;;;;;23.40;55.10;;;19.47;80.83;94825.03;4955488;28;19910;-45
2022/09/14 00:19:26;;;;;;;;;;;23.40;55.10;;;19.43;81.14;94824.16;4954428;28;19960;-46
2022/09/14 00:21:55;;;;;;;;;;;23.30;55.20;;;19.38;81.44;94827.88;4966887;28;20009;-45
2022/09/14 00:24:29;;;;;;;;;;;23.30;55.30;;;19.38;81.24;94829.78;4927449;28;19914;-46
2022/09/14 00:26:59;;;;;;;;;;;23.20;55.30;;;19.35;80.98;94835.84;4943992;28;20012;-46
2022/09/14 00:29:29;;;;;;;;;;;23.20;55.40;;;19.28;80.85;94836.41;4974879;28;20368;-47
2022/09/14 00:31:55;;;;;;;;;;;23.20;55.50;;;19.28;80.96;94841.81;4974697;28;19996;-47
2022/09/14 00:34:21;;;;;;;;;;;23.20;55.50;;;19.25;81.71;94836.31;4971975;28;20507;-45
2022/09/14 00:36:50;;;;;;;;;;;23.20;55.60;;;19.21;81.60;94833.50;4957256;28;20306;-46
2022/09/14 00:39:20;;;;;;;;;;;23.10;55.60;;;19.21;82.57;94841.59;4969661;28;19914;-46
2022/09/14 00:41:49;;;;;;;;;;;23.10;55.70;;;19.19;82.82;94838.44;4937886;28;20324;-45
2022/09/14 00:44:17;;;;;;;;;;;23.00;55.70;;;19.15;82.93;94819.44;4938485;28;19910;-45
2022/09/14 00:46:51;;;;;;;;;;;23.00;55.80;;;19.11;82.79;94817.72;4957255;28;20404;-46
2022/09/14 00:49:35;;;;;;;;;;;23.00;55.80;;;19.08;82.78;94829.19;4972879;28;19917;-45
2022/09/14 00:52:33;;;;;;;;;;;22.90;55.80;;;19.05;82.35;94824.47;4972312;28;19963;-45
2022/09/14 00:55:06;;;;;;;;;;;22.90;55.90;;;19.06;82.69;94832.25;4972880;28;19960;-45
2022/09/14 00:57:40;;;;;;;;;;;22.90;56.00;;;19.07;81.82;94825.72;4970590;28;19932;-45
2022/09/14 01:00:09;;;;;;;;;;;22.90;56.00;;;19.07;81.63;94825.72;4954282;28;19918;-45
2022/09/14 01:02:37;;;;;;;;;;;22.90;56.10;;;19.09;81.35;94820.78;4925601;28;19918;-45
2022/09/14 01:05:05;;;;;;;;;;;22.90;56.10;;;19.11;80.53;94818.50;4956434;28;20344;-46
2022/09/14 01:07:57;;;;;;;;;;;22.90;56.10;;;19.15;81.05;94814.03;4974165;28;19913;-44
2022/09/14 01:10:37;;;;;;;;;;;22.90;56.20;;;19.13;78.73;94807.41;4958155;28;20012;-45
2022/09/14 01:13:27;;;;;;;;;;;23.00;56.40;;;19.20;80.43;94821.13;4974259;28;19917;-45
2022/09/14 01:16:18;;;;;;;;;;;23.00;56.20;;;19.24;80.18;94815.81;4971579;28;20403;-46
2022/09/14 01:18:51;;;;;;;;;;;23.00;56.20;;;19.26;79.76;94824.38;4956719;28;19914;-46
2022/09/14 01:21:33;;;;;;;;;;;23.00;56.20;;;19.26;79.54;94829.78;4946945;28;20416;-48
2022/09/14 01:24:18;;;;;;;;;;;23.10;56.20;;;19.23;80.06;94825.84;4954633;28;19917;-46
2022/09/14 01:27:12;;;;;;;;;;;23.10;56.10;;;19.22;79.62;94815.38;4943662;28;20451;-45
2022/09/14 01:30:00;;;;;;;;;;;23.10;56.10;;;19.22;79.90;94829.66;4955561;28;19910;-46
2022/09/14 01:33:28;;;;;;;;;;;23.10;56.10;;;19.25;80.04;94828.22;4955266;28;20032;-45
2022/09/14 01:36:12;;;;;;;;;;;23.10;56.10;;;19.29;79.24;94834.50;4878940;29;20384;-46
2022/09/14 01:38:49;;;;;;;;;;;23.10;56.10;;;19.30;79.98;94836.06;4971447;28;19996;-48
2022/09/14 01:41:23;;;;;;;;;;;23.10;56.10;;;19.33;79.93;94832.69;4937304;28;19918;-45
2022/09/14 01:44:30;;;;;;;;;;;23.20;56.10;;;19.28;80.96;94827.53;4963911;28;19914;-46
2022/09/14 01:47:26;;;;;;;;;;;23.20;56.10;;;19.27;80.44;94834.81;4957121;28;19917;-46
2022/09/14 01:50:02;;;;;;;;;;;23.10;56.10;;;19.23;80.80;94817.75;4973127;28;19909;-46
2022/09/14 01:53:33;;;;;;;;;;;23.10;56.10;;;19.21;80.65;94824.59;4937596;28;19910;-45
2022/09/14 01:56:14;;;;;;;;;;;23.10;56.10;;;19.21;80.38;94828.09;4933389;28;19914;-48
2022/09/14 01:59:02;;;;;;;;;;;23.00;56.20;;;19.18;81.77;94826.09;4968415;28;19932;-46
2022/09/14 02:02:05;;;;;;;;;;;23.00;56.20;;;19.14;80.92;94833.25;4937485;28;20404;-46
2022/09/14 02:04:53;;;;;;;;;;;23.00;56.30;;;19.08;80.77;94832.69;4957795;28;19917;-46
2022/09/14 02:07:22;;;;;;;;;;;23.00;56.30;;;19.06;80.87;94826.06;4972966;28;19917;-46
2022/09/14 02:09:55;;;;;;;;;;;23.00;56.30;;;19.06;79.84;94826.06;4969696;28;19921;-45
2022/09/14 02:12:22;;;;;;;;;;;22.90;56.30;;;19.13;79.43;94818.19;4953695;28;20390;-48
2022/09/14 02:14:53;;;;;;;;;;;22.90;56.50;;;19.35;77.19;94822.34;4954727;28;19961;-48
2022/09/14 02:17:20;;;;;;;;;;;23.00;56.60;;;19.64;75.75;94818.63;4936265;28;19910;-45
2022/09/14 02:20:01;;;;;;;;;;;23.10;56.90;;;19.85;74.74;94821.19;4953260;28;19910;-46
2022/09/14 02:22:30;;;;;;;;;;;23.20;56.90;;;19.97;74.46;94823.06;4955621;28;20443;-47
2022/09/14 02:25:05;;;;;;;;;;;23.30;56.80;;;20.10;73.48;94811.09;4970792;28;19909;-46
2022/09/14 02:27:34;;;;;;;;;;;23.40;56.80;;;20.29;72.48;94808.53;4971237;28;19956;-45
2022/09/14 02:30:03;;;;;;;;;;;23.60;56.80;;;20.52;71.35;94808.00;4953194;28;19910;-45
2022/09/14 02:32:57;;;;;;;;;;;23.60;56.70;;;20.69;70.10;94807.69;4953180;28;19917;-46
2022/09/14 02:35:31;;;;;;;;;;;23.80;56.60;;;20.79;69.99;94820.69;4952937;28;20012;-49
2022/09/14 02:38:40;;;;;;;;;;;23.90;56.40;;;20.83;71.96;94804.53;4952988;28;20289;-46
2022/09/14 02:41:47;;;;;;;;;;;24.10;56.20;;;20.79;73.09;94814.50;4968868;28;19917;-45
2022/09/14 02:44:51;;;;;;;;;;;24.10;56.00;;;20.72;72.94;94811.63;4967663;28;19916;-46
2022/09/14 02:47:32;;;;;;;;;;;24.00;56.00;;;20.65;73.37;94812.22;4931244;28;19917;-48
2022/09/14 02:50:28;;;;;;;;;;;24.00;56.00;;;20.63;73.91;94811.00;4970644;28;19968;-46
2022/09/14 02:53:18;;;;;;;;;;;24.00;56.20;;;20.61;73.14;94814.03;4914133;28;19910;-49
2022/09/14 02:56:07;;;;;;;;;;;24.00;56.20;;;20.58;73.52;94820.13;4921118;28;20016;-47
2022/09/14 02:58:53;;;;;;;;;;;24.00;56.20;;;20.52;73.03;94824.22;4954867;28;19945;-46
2022/09/14 03:01:24;;;;;;;;;;;24.00;56.20;;;20.50;73.23;94821.06;4941776;28;19941;-47
2022/09/14 03:03:55;;;;;;;;;;;24.00;56.10;;;20.51;72.70;94823.44;4947620;28;19910;-46
2022/09/14 03:06:24;;;;;;;;;;;24.10;56.20;;;20.53;72.81;94810.38;4972085;28;19964;-49
2022/09/14 03:08:50;;;;;;;;;;;24.10;56.10;;;20.57;72.44;94818.56;4966717;28;19914;-46
2022/09/14 03:11:31;;;;;;;;;;;24.10;56.10;;;20.60;72.46;94808.97;4965435;28;20284;-49
2022/09/14 03:13:57;;;;;;;;;;;24.10;56.10;;;20.61;72.70;94811.31;4954146;28;19910;-45
2022/09/14 03:16:26;;;;;;;;;;;24.20;56.00;;;20.59;72.32;94794.66;4955506;28;19913;-47
2022/09/14 03:18:52;;;;;;;;;;;24.10;55.90;;;20.60;72.38;94785.41;4970348;28;20261;-45
2022/09/14 03:21:18;;;;;;;;;;;24.20;55.90;;;20.61;72.54;94786.97;4967112;28;19921;-46
2022/09/14 03:23:48;;;;;;;;;;;24.20;55.80;;;20.58;72.57;94800.41;4935112;29;19920;-47
2022/09/14 03:26:21;;;;;;;;;;;24.20;55.70;;;20.55;72.86;94791.06;4951573;28;19932;-49
2022/09/14 03:28:56;;;;;;;;;;;24.20;55.60;;;20.51;73.10;94801.81;4954467;28;20001;-46
2022/09/14 03:31:32;;;;;;;;;;;24.20;55.60;;;20.49;73.34;94797.84;4971539;28;20019;-45
2022/09/14 03:34:01;;;;;;;;;;;24.20;55.50;;;20.47;73.48;94802.81;4953244;28;26682;-47
2022/09/14 03:36:30;;;;;;;;;;;24.20;55.50;;;20.45;73.57;94805.06;4970625;28;20275;-46
2022/09/14 03:39:00;;;;;;;;;;;24.20;55.60;;;20.41;73.85;94798.78;4971152;28;19931;-45
2022/09/14 03:41:32;;;;;;;;;;;24.20;55.50;;;20.39;74.01;94804.53;4971610;28;19921;-46
2022/09/14 03:44:01;;;;;;;;;;;24.10;55.50;;;20.34;74.23;94797.47;4953620;28;19960;-45
2022/09/14 03:46:27;;;;;;;;;;;24.10;55.50;;;20.37;74.30;94806.00;4965234;28;19911;-46
2022/09/14 03:48:54;;;;;;;;;;;24.10;55.60;;;20.34;74.42;94805.59;4952576;29;20265;-46
2022/09/14 03:51:29;;;;;;;;;;;24.10;55.50;;;20.30;74.60;94801.19;4959822;28;20038;-45
2022/09/14 03:53:58;;;;;;;;;;;24.10;55.50;;;20.28;74.60;94801.56;4942054;28;19910;-45
2022/09/14 03:56:29;;;;;;;;;;;24.10;55.60;;;20.27;74.80;94799.97;4973366;28;19996;-49
2022/09/14 03:58:56;;;;;;;;;;;24.00;55.50;;;20.25;74.54;94796.84;4970746;28;19914;-46
2022/09/14 04:01:25;;;;;;;;;;;24.00;55.50;;;20.23;74.77;94790.97;4951121;28;19918;-48
2022/09/14 04:03:51;;;;;;;;;;;24.00;55.60;;;20.22;74.79;94794.03;4949110;28;19917;-46
2022/09/14 04:06:18;;;;;;;;;;;24.00;55.60;;;20.25;74.64;94780.63;4970920;28;20270;-46
2022/09/14 04:08:45;;;;;;;;;;;24.00;55.60;;;20.21;74.85;94801.38;4970814;28;19909;-45
2022/09/14 04:11:24;;;;;;;;;;;24.00;55.60;;;20.20;74.81;94799.00;4935341;29;20490;-46
2022/09/14 04:13:51;;;;;;;;;;;24.00;55.60;;;20.17;74.98;94792.34;4934819;29;19921;-46
2022/09/14 04:16:32;;;;;;;;;;;23.90;55.50;;;20.11;75.57;94788.31;4942164;28;20270;-46
2022/09/14 04:19:04;;;;;;;;;;;23.90;55.60;;;20.10;75.43;94787.53;4953504;28;19910;-46
2022/09/14 04:21:30;;;;;;;;;;;23.90;55.60;;;20.05;75.90;94792.41;4952798;28;19949;-47
2022/09/14 04:23:57;;;;;;;;;;;23.80;55.60;;;20.04;75.88;94785.44;4970187;28;19949;-46
2022/09/14 04:26:28;;;;;;;;;;;23.80;55.60;;;20.01;76.15;94789.59;4969305;28;19910;-46
2022/09/14 04:28:56;;;;;;;;;;;23.80;55.60;;;20.00;76.11;94779.16;4919468;29;19910;-48
2022/09/14 04:31:23;;;;;;;;;;;23.80;55.70;;;19.94;76.16;94786.72;4935011;29;20289;-45
2022/09/14 04:33:50;;;;;;;;;;;23.70;55.70;;;19.92;76.28;94788.19;4939355;28;20362;-46
2022/09/14 04:36:19;;;;;;;;;;;23.70;55.70;;;19.86;76.61;94780.28;4936273;29;19910;-48
2022/09/14 04:38:53;;;;;;;;;;;23.60;55.70;;;19.79;76.79;94785.50;4919529;28;19950;-47
2022/09/14 04:41:25;;;;;;;;;;;23.60;55.80;;;19.71;77.33;94781.03;4938005;28;19985;-46
2022/09/14 04:43:59;;;;;;;;;;;23.50;55.80;;;19.67;77.31;94793.63;4941584;28;19920;-45
2022/09/14 04:46:33;;;;;;;;;;;23.50;55.90;;;19.64;77.14;94794.31;4953040;28;19910;-47
2022/09/14 04:49:02;;;;;;;;;;;23.50;56.00;;;19.58;78.29;94798.34;4955205;28;19914;-46
2022/09/14 04:51:32;;;;;;;;;;;23.40;56.00;;;19.48;79.45;94796.13;4954289;28;19916;-46
2022/09/14 04:54:00;;;;;;;;;;;23.40;56.00;;;19.46;79.27;94803.78;4934442;29;19917;-46
2022/09/14 04:56:29;;;;;;;;;;;23.40;56.00;;;19.36;79.92;94795.00;4936413;28;20641;-47
2022/09/14 04:58:59;;;;;;;;;;;23.30;56.00;;;19.24;80.81;94786.94;4950582;28;19911;-47
2022/09/14 05:01:38;;;;;;;;;;;23.20;56.10;;;19.12;80.92;94784.25;4918319;29;19922;-45
2022/09/14 05:04:09;;;;;;;;;;;23.10;56.00;;;19.00;81.96;94785.03;4939747;28;19949;-46
2022/09/14 05:06:39;;;;;;;;;;;23.00;56.20;;;18.86;82.73;94776.47;4934514;29;19915;-46
2022/09/14 05:09:13;;;;;;;;;;;22.90;56.30;;;18.78;82.92;94788.16;4942869;28;19909;-46
2022/09/14 05:11:44;;;;;;;;;;;22.80;56.40;;;18.62;84.16;94786.06;4936423;28;19910;-46
2022/09/14 05:14:13;;;;;;;;;;;22.70;56.50;;;18.56;84.94;94786.63;4917742;28;20388;-50
2022/09/14 05:16:43;;;;;;;;;;;22.60;56.60;;;18.46;85.17;94795.94;4935613;29;20013;-46
2022/09/14 05:19:15;;;;;;;;;;;22.50;56.80;;;18.41;85.49;94796.91;4947706;28;19918;-49
2022/09/14 05:21:44;;;;;;;;;;;22.50;56.90;;;18.39;85.45;94796.47;4930027;28;19921;-45
2022/09/14 05:24:16;;;;;;;;;;;22.50;57.00;;;18.31;86.40;94796.56;4966847;28;20428;-48
2022/09/14 05:26:44;;;;;;;;;;;22.40;57.00;;;18.31;86.44;94796.56;4959434;28;20048;-47
2022/09/14 05:29:17;;;;;;;;;;;22.40;57.10;;;18.27;86.63;94797.22;4951093;28;19914;-45
2022/09/14 05:31:46;;;;;;;;;;;22.30;57.40;;;18.19;87.45;94794.59;4965146;28;20281;-45
2022/09/14 05:34:12;;;;;;;;;;;22.30;57.30;;;18.18;87.24;94791.13;4931242;28;20004;-49
2022/09/14 05:36:39;;;;;;;;;;;22.30;57.40;;;18.22;87.25;94802.03;4967134;28;20407;-46
2022/09/14 05:39:06;;;;;;;;;;;22.30;57.50;;;18.21;87.38;94790.47;4949488;28;19955;-44
2022/09/14 05:41:32;;;;;;;;;;;22.30;57.60;;;18.26;87.06;94792.16;4979429;28;19949;-47
2022/09/14 05:43:59;;;;;;;;;;;22.30;57.70;;;18.25;87.37;94807.53;4966354;28;19910;-45
2022/09/14 05:46:25;;;;;;;;;;;22.30;57.80;;;18.29;87.05;94801.50;4960208;28;19914;-47
2022/09/14 05:48:51;;;;;;;;;;;22.30;57.80;;;18.33;86.99;94813.97;4983520;28;19917;-50
2022/09/14 05:51:21;;;;;;;;;;;22.30;57.80;;;18.37;86.84;94806.03;4965525;28;19934;-48
2022/09/14 05:53:57;;;;;;;;;;;22.40;57.90;;;18.41;87.48;94799.63;4970503;28;20430;-47
2022/09/14 05:56:27;;;;;;;;;;;22.40;57.90;;;18.41;87.11;94796.91;4958503;28;20008;-49
2022/09/14 05:58:54;;;;;;;;;;;22.40;57.90;;;18.42;88.07;94793.09;4964081;28;19998;-45
2022/09/14 06:01:30;;;;;;;;;;;22.40;57.90;;;18.45;87.64;94797.03;4962505;28;19921;-46
2022/09/14 06:04:03;;;;;;;;;;;22.50;58.00;;;18.52;87.09;94793.78;4957532;28;19945;-46
2022/09/14 06:06:31;;;;;;;;;;;22.50;58.00;;;18.56;87.06;94789.34;4982265;28;19913;-48
2022/09/14 06:08:58;;;;;;;;;;;22.60;58.00;;;18.57;87.02;94778.19;4976291;28;19917;-46
2022/09/14 06:11:28;;;;;;;;;;;22.60;58.00;;;18.58;87.15;94779.75;4985993;28;20373;-47
2022/09/14 06:13:55;;;;;;;;;;;22.60;58.00;;;18.61;87.11;94781.00;4966065;28;19925;-51
2022/09/14 06:16:25;;;;;;;;;;;22.70;58.00;;;18.69;86.72;94782.81;4914305;28;21559;-46
2022/09/14 06:18:55;;;;;;;;;;;22.70;58.00;;;18.72;86.81;94792.94;4991031;28;19932;-45
2022/09/14 06:21:30;;;;;;;;;;;22.80;58.00;;;18.76;87.58;94780.38;4970488;28;19917;-48
2022/09/14 06:23:57;;;;;;;;;;;22.80;58.00;;;18.80;86.95;94778.59;4974317;28;19909;-48
2022/09/14 06:26:26;;;;;;;;;;;22.80;58.00;;;18.81;86.71;94774.78;4969463;28;20276;-46
2022/09/14 06:28:53;;;;;;;;;;;22.80;58.00;;;18.84;86.49;94781.41;4972438;28;19910;-48
2022/09/14 06:31:21;;;;;;;;;;;22.90;58.00;;;18.90;86.30;94780.06;4974844;28;19916;-50
2022/09/14 06:33:49;;;;;;;;;;;22.90;58.00;;;18.94;86.78;94786.38;4960021;28;19913;-47
2022/09/14 06:36:22;;;;;;;;;;;23.00;58.00;;;18.94;86.47;94789.06;4974970;28;19910;-47
2022/09/14 06:38:49;;;;;;;;;;;23.00;58.00;;;18.99;86.09;94794.25;4940449;28;27034;-46
2022/09/14 06:41:21;;;;;;;;;;;23.10;58.00;;;19.02;86.01;94793.56;4974178;28;19921;-50
2022/09/14 06:43:49;;;;;;;;;;;23.20;58.00;;;19.10;85.69;94795.34;4981584;28;20103;-47
2022/09/14 06:46:18;;;;;;;;;;;23.30;57.90;;;19.20;85.31;94804.91;4955139;28;20344;-46
2022/09/14 06:48:49;;;;;;;;;;;23.40;57.90;;;19.25;84.66;94810.09;4990148;28;19916;-46
2022/09/14 06:51:40;;;;;;;;;;;23.50;57.90;;;19.33;84.45;94811.88;4962805;28;19909;-46
2022/09/14 06:54:14;;;;;;;;;;;23.60;57.80;;;19.46;84.52;94833.47;4977094;28;20433;-48
2022/09/14 06:57:04;;;;;;;;;;;23.70;57.70;;;19.56;84.91;94831.13;4986746;28;20008;-46
2022/09/14 06:59:30;;;;;;;;;;;23.80;57.60;;;19.63;84.46;94836.72;4966830;28;19909;-46
2022/09/14 07:01:59;;;;;;;;;;;23.90;57.60;;;19.71;84.51;94831.56;4989334;28;19940;-45
2022/09/14 07:04:27;;;;;;;;;;;24.10;57.50;;;19.81;83.20;94831.13;4982555;28;19959;-46
2022/09/14 07:06:59;;;;;;;;;;;24.20;57.40;;;19.89;83.43;94824.78;4991421;28;19913;-46
2022/09/14 07:09:28;;;;;;;;;;;24.30;57.40;;;19.96;83.31;94827.69;4980257;28;20376;-46
2022/09/14 07:11:55;;;;;;;;;;;24.30;57.20;;;20.04;82.29;94829.47;4990223;28;20268;-46
2022/09/14 07:14:27;;;;;;;;;;;24.40;57.20;;;20.11;81.77;94837.75;4988587;28;19965;-46
2022/09/14 07:16:53;;;;;;;;;;;24.50;57.10;;;20.17;80.79;94835.63;4990278;28;19910;-47
2022/09/14 07:19:21;;;;;;;;;;;24.50;57.10;;;20.25;81.63;94836.63;4991224;28;19924;-47
2022/09/14 07:21:48;;;;;;;;;;;24.60;57.00;;;20.23;76.32;94828.84;4968302;28;19917;-47
2022/09/14 07:24:23;;;;;;;;;;;24.70;57.00;;;20.38;79.28;94823.81;4973817;28;19978;-47
2022/09/14 07:26:49;;;;;;;;;;;24.80;56.90;;;20.49;79.00;94831.06;4966406;28;20368;-46
2022/09/14 07:29:19;;;;;;;;;;;24.90;56.80;;;20.63;79.15;94819.88;4972834;28;19921;-47
2022/09/14 07:32:05;;;;;;;;;;;25.00;56.70;;;20.69;78.64;94825.84;4974093;28;19996;-46
2022/09/14 07:34:39;;;;;;;;;;;25.10;56.50;;;20.71;78.29;94815.44;4975462;28;19948;-46
2022/09/14 07:37:05;;;;;;;;;;;25.20;56.40;;;20.72;74.91;94822.44;4973559;28;19959;-46
2022/09/14 07:39:31;;;;;;;;;;;25.30;56.30;;;20.83;75.20;94818.06;4967819;28;19913;-46
2022/09/14 07:41:59;;;;;;;;;;;25.50;56.20;;;20.97;76.57;94818.44;4990785;28;19979;-46
2022/09/14 07:44:25;;;;;;;;;;;25.60;56.70;;;21.10;74.95;94834.59;4979892;28;20306;-46
2022/09/14 07:46:51;;;;;;;;;;;25.80;55.90;;;21.27;74.51;94845.06;4968164;28;20014;-49
2022/09/14 07:49:17;;;;;;;;;;;25.90;55.80;;;21.38;72.78;94845.38;4973686;28;20008;-46
2022/09/14 07:51:47;;;;;;;;;;;26.10;55.60;;;21.57;73.45;94840.00;4978337;28;19964;-46
2022/09/14 07:54:16;;;;;;;;;;;26.20;55.40;;;21.70;69.83;94837.97;4990759;28;19941;-48
2022/09/14 07:56:45;;;;;;;;;;;26.40;55.30;;;21.90;68.97;94844.97;4970230;28;20361;-47
2022/09/14 07:59:15;;;;;;;;;;;26.60;55.10;;;22.04;67.77;94849.94;4985190;28;19945;-46
2022/09/14 08:01:47;;;;;;;;;;;26.70;54.80;;;22.11;65.71;94852.78;5004839;23;19925;-53
2022/09/14 08:04:13;;;;;;;;;;;26.90;54.50;;;22.26;65.48;94869.41;4997601;28;20439;-51
2022/09/14 08:06:39;;;;;;;;;;;27.00;54.10;;;22.40;64.11;94881.31;5001270;28;19999;-54
2022/09/14 08:09:16;;;;;;;;;;;27.10;53.90;;;22.51;63.85;94886.97;4978915;28;19910;-53
2022/09/14 08:11:44;;;;;;;;;;;27.20;53.60;;;22.63;63.50;94886.81;4946524;28;19920;-53
2022/09/14 08:14:12;;;;;;;;;;;27.30;53.30;;;22.72;63.08;94883.91;4990699;28;20023;-51
2022/09/14 08:16:51;;;;;;;;;;;27.40;53.20;;;22.85;63.63;94896.16;4989289;28;20375;-49
2022/09/14 08:19:19;;;;;;;;;;;27.50;53.10;;;22.90;63.90;94903.22;4946731;28;19913;-52
2022/09/14 08:21:46;;;;;;;;;;;27.50;53.00;;;22.90;63.39;94900.50;4951533;28;19914;-51
2022/09/14 08:24:20;;;;;;;;;;;27.60;52.90;;;22.97;63.64;94902.59;4957210;28;19909;-50
2022/09/14 08:26:48;;;;;;;;;;;27.50;52.70;;;22.95;63.49;94908.38;4986055;28;19914;-49
2022/09/14 08:29:16;;;;;;;;;;;27.50;52.60;;;23.02;63.83;94899.59;4969250;28;20345;-47
2022/09/14 08:31:44;;;;;;;;;;;27.50;52.60;;;23.03;63.55;94901.16;4972768;28;20372;-50
2022/09/14 08:34:14;;;;;;;;;;;27.50;52.60;;;22.95;64.08;94916.53;4975467;28;19909;-51
2022/09/14 08:36:42;;;;;;;;;;;27.50;52.50;;;22.93;63.71;94913.34;4970669;28;19958;-52
2022/09/14 08:39:14;;;;;;;;;;;27.50;52.40;;;22.90;63.46;94919.50;4986672;28;19909;-49
2022/09/14 08:41:55;;;;;;;;;;;27.60;52.30;;;22.93;63.96;94918.00;4965177;28;20402;-53
2022/09/14 08:44:52;;;;;;;;;;;27.60;52.10;;;22.83;64.29;94924.81;4963402;28;19940;-50
2022/09/14 08:47:37;;;;;;;;;;;27.70;51.90;;;22.85;64.09;94928.75;4973176;28;19909;-54
2022/09/14 08:50:20;;;;;;;;;;;27.70;51.80;;;22.70;63.92;94920.69;4977147;28;19918;-53
2022/09/14 08:53:00;;;;;;;;;;;27.80;51.60;;;22.55;64.12;94909.53;4956700;28;19924;-51
2022/09/14 08:55:59;;;;;;;;;;;27.80;51.20;;;22.95;63.67;94910.31;4976126;28;19917;-52
2022/09/14 08:58:33;;;;;;;;;;;27.90;51.10;;;23.25;63.02;94910.47;4954977;28;19921;-55
2022/09/14 09:01:16;;;;;;;;;;;28.20;51.10;;;23.27;62.34;94903.53;4950663;28;19914;-50
2022/09/14 09:04:28;;;;;;;;;;;28.60;50.70;;;23.42;62.07;94898.34;4970313;28;19964;-55
2022/09/14 09:07:21;;;;;;;;;;;28.80;50.20;;;23.83;61.25;94893.97;4937000;28;19910;-52
2022/09/14 09:09:52;;;;;;;;;;;29.10;49.80;;;24.14;60.84;94878.47;4963565;28;19910;-54
2022/09/14 09:12:28;;;;;;;;;;;29.40;49.70;;;24.23;59.39;94878.97;4936515;28;20012;-52
2022/09/14 09:15:03;;;;;;;;;;;29.60;49.60;;;24.35;59.56;94869.78;4936899;28;19910;-54
2022/09/14 09:17:43;;;;;;;;;;;29.80;49.30;;;24.60;59.48;94865.47;4937514;28;20017;-53
2022/09/14 09:20:23;;;;;;;;;;;30.00;49.00;;;24.81;58.08;94872.31;4966974;28;19913;-54
2022/09/14 09:23:23;;;;;;;;;;;30.30;48.90;;;25.11;57.30;94862.09;4949396;28;19917;-55
2022/09/14 09:26:04;;;;;;;;;;;30.60;48.80;;;25.28;57.42;94885.25;4922498;28;20006;-50
2022/09/14 09:28:32;;;;;;;;;;;30.80;48.50;;;25.14;56.35;94868.78;4956377;28;20391;-44
2022/09/14 09:31:05;;;;;;;;;;;31.00;48.00;;;25.28;56.53;94868.91;4955676;28;20008;-51
2022/09/14 09:33:37;;;;;;;;;;;31.20;47.80;;;25.50;55.82;94869.84;4957934;28;19913;-54
2022/09/14 09:36:07;;;;;;;;;;;31.30;47.70;;;25.53;55.61;94871.81;4941430;28;19910;-54
2022/09/14 09:38:33;;;;;;;;;;;31.50;47.40;;;25.66;55.84;94858.69;4947983;28;19917;-54
2022/09/14 09:41:26;;;;;;;;;;;31.50;47.20;;;25.89;55.21;94852.25;4958125;28;20016;-53
2022/09/14 09:44:10;;;;;;;;;;;31.60;47.20;;;26.18;54.11;94843.06;4931197;28;19948;-47
2022/09/14 09:46:55;;;;;;;;;;;31.90;47.10;;;26.41;53.39;94839.25;4955890;28;20369;-55
2022/09/14 09:49:28;;;;;;;;;;;32.10;47.00;;;26.39;52.84;94836.16;4955621;28;19968;-52
2022/09/14 09:51:55;;;;;;;;;;;32.20;46.70;;;26.02;52.50;94832.44;4962198;28;19910;-52
2022/09/14 09:54:29;;;;;;;;;;;32.10;46.00;;;25.84;52.77;94834.28;4939145;28;19952;-49
2022/09/14 09:57:01;;;;;;;;;;;32.10;45.70;;;25.69;53.16;94827.94;4967073;28;19909;-53
2022/09/14 09:59:38;;;;;;;;;;;31.90;45.30;;;25.68;53.32;94825.59;4953658;28;19914;-50
2022/09/14 10:02:28;;;;;;;;;;;31.80;45.30;;;25.28;53.91;94816.34;4960619;28;19972;-50
2022/09/14 10:05:20;;;;;;;;;;;31.60;45.20;;;24.93;55.21;94817.56;4943887;28;19910;-50
2022/09/14 10:08:02;;;;;;;;;;;31.30;44.90;;;25.03;55.27;94816.09;4956066;28;19925;-50
2022/09/14 10:10:38;;;;;;;;;;;31.00;44.90;;;25.08;55.63;94811.09;4971013;28;20004;-55
2022/09/14 10:13:14;;;;;;;;;;;30.90;45.10;;;25.13;54.41;94810.78;4987608;28;19910;-52
2022/09/14 10:15:49;;;;;;;;;;;30.80;45.20;;;25.00;54.64;94808.66;4971893;28;19909;-53
2022/09/14 10:18:21;;;;;;;;;;;30.90;45.20;;;25.00;54.77;94809.44;4971585;28;19913;-49
2022/09/14 10:20:53;;;;;;;;;;;30.90;45.00;;;25.23;55.13;94805.78;4954230;28;19914;-50
2022/09/14 10:23:29;;;;;;;;;;;31.00;45.00;;;24.83;53.71;94794.53;4961217;28;19957;-49
2022/09/14 10:26:13;;;;;;;;;;;31.00;44.50;;;24.90;53.77;94800.03;4953286;28;20377;-53
2022/09/14 10:28:41;;;;;;;;;;;31.00;44.20;;;24.92;53.28;94783.31;4970525;28;19910;-53
2022/09/14 10:31:19;;;;;;;;;;;31.10;44.00;;;24.81;53.73;94790.59;4961631;28;19914;-50
2022/09/14 10:33:56;;;;;;;;;;;31.20;43.60;;;24.85;53.87;94789.50;4966293;28;20269;-55
2022/09/14 10:36:36;;;;;;;;;;;31.20;43.50;;;24.34;54.93;94775.69;4946781;28;19909;-54
2022/09/14 10:39:59;;;;;;;;;;;31.10;42.90;;;24.65;55.27;94777.22;4966957;28;19996;-49
2022/09/14 10:42:43;;;;;;;;;;;30.90;42.90;;;24.55;55.09;94767.78;4931096;28;19966;-52
2022/09/14 10:45:24;;;;;;;;;;;30.70;43.20;;;24.42;55.84;94775.44;4932560;28;19933;-52
2022/09/14 10:48:18;;;;;;;;;;;30.60;43.40;;;24.30;56.73;94780.34;4947596;28;19910;-52
2022/09/14 10:51:06;;;;;;;;;;;30.40;43.50;;;24.26;56.60;94774.84;4956326;28;19921;-53
2022/09/14 10:53:56;;;;;;;;;;;30.20;43.80;;;24.17;57.30;94774.34;4951799;28;19909;-50
2022/09/14 10:56:32;;;;;;;;;;;30.00;44.00;;;24.28;57.55;94782.63;4967550;28;19910;-48
2022/09/14 10:59:47;;;;;;;;;;;29.90;44.20;;;24.03;57.72;94777.66;4951740;28;19913;-49
2022/09/14 11:02:45;;;;;;;;;;;29.80;44.40;;;24.16;58.06;94761.88;4950968;28;19925;-51
2022/09/14 11:05:35;;;;;;;;;;;29.60;44.60;;;24.12;58.43;94770.00;4927195;28;19913;-53
2022/09/14 11:08:43;;;;;;;;;;;29.60;44.80;;;24.15;58.17;94746.72;4954512;28;20478;-49
2022/09/14 11:11:44;;;;;;;;;;;29.60;44.90;;;24.31;57.75;94758.19;4956856;28;19914;-52
2022/09/14 11:14:31;;;;;;;;;;;29.70;45.00;;;24.10;58.28;94752.50;4935061;28;19921;-49
2022/09/14 11:17:53;;;;;;;;;;;29.70;44.90;;;24.25;57.61;94754.22;4945535;28;19939;-55
2022/09/14 11:21:04;;;;;;;;;;;29.80;44.90;;;24.26;57.15;94750.38;4963264;28;19910;-52
2022/09/14 11:24:15;;;;;;;;;;;29.80;44.90;;;24.22;57.45;94747.59;4945630;28;20365;-55
2022/09/14 11:27:20;;;;;;;;;;;29.80;44.90;;;24.14;57.64;94750.63;4952694;28;19918;-54
2022/09/14 11:29:52;;;;;;;;;;;29.70;44.90;;;24.23;57.92;94742.94;4943814;28;19914;-55
2022/09/14 11:32:41;;;;;;;;;;;29.60;45.00;;;23.98;57.90;94748.09;4964139;28;19910;-47
2022/09/14 11:35:36;;;;;;;;;;;29.50;45.10;;;23.94;57.31;94747.25;4951026;28;19920;-55
2022/09/14 11:38:28;;;;;;;;;;;29.30;45.10;;;23.81;57.63;94744.00;4952196;28;20009;-51
2022/09/14 11:41:20;;;;;;;;;;;29.20;45.20;;;23.80;57.93;94747.09;4955975;28;20044;-51
2022/09/14 11:44:25;;;;;;;;;;;29.20;45.20;;;23.83;57.96;94747.13;4964598;28;20396;-52
2022/09/14 11:47:03;;;;;;;;;;;29.20;45.20;;;23.92;57.93;94763.97;4952820;28;19918;-50
2022/09/14 11:49:51;;;;;;;;;;;29.20;45.30;;;23.75;57.55;94764.50;4961289;28;19917;-53
2022/09/14 11:52:28;;;;;;;;;;;29.10;45.30;;;23.68;58.08;94757.00;4946890;28;19964;-51
2022/09/14 11:54:56;;;;;;;;;;;29.00;45.40;;;23.65;58.29;94763.16;4937511;29;20308;-53
2022/09/14 11:57:32;;;;;;;;;;;28.80;45.40;;;23.81;58.55;94762.25;4954214;28;19957;-54
2022/09/14 12:00:28;;;;;;;;;;;28.70;45.60;;;23.78;58.56;94763.75;4936497;28;20016;-51